createdAt,value
2018-09-18T00:00:46.361Z,18.60
2018-09-18T00:03:17.949Z,18.60
2018-09-18T00:05:52.776Z,18.60
2018-09-18T00:08:24.466Z,18.60
2018-09-18T00:10:54.343Z,18.50
2018-09-18T00:13:26.621Z,18.60
2018-09-18T00:15:56.682Z,18.60
2018-09-18T00:18:26.155Z,18.60
2018-09-18T00:20:56.313Z,18.50
2018-09-18T00:23:26.551Z,18.40
2018-09-18T00:25:55.990Z,18.30
2018-09-18T00:28:26.872Z,18.40
2018-09-18T00:30:56.226Z,18.50
2018-09-18T00:33:26.492Z,18.50
2018-09-18T00:35:58.144Z,18.40
2018-09-18T00:38:27.752Z,18.40
2018-09-18T00:40:57.054Z,18.30
2018-09-18T00:43:27.858Z,18.40
2018-09-18T00:45:57.087Z,18.30
2018-09-18T00:48:27.614Z,18.30
2018-09-18T00:51:04.562Z,18.40
2018-09-18T00:53:34.608Z,18.30
2018-09-18T00:56:04.079Z,18.20
2018-09-18T00:58:34.128Z,18.10
2018-09-18T01:01:03.741Z,18.00
2018-09-18T01:03:33.516Z,18.10
2018-09-18T01:06:03.022Z,18.10
2018-09-18T01:08:32.656Z,17.90
2018-09-18T01:11:04.421Z,17.90
2018-09-18T01:13:43.519Z,17.80
2018-09-18T01:16:12.716Z,17.90
2018-09-18T01:18:43.555Z,17.90
2018-09-18T01:21:13.365Z,17.70
2018-09-18T01:23:42.769Z,17.70
2018-09-18T01:26:12.376Z,17.70
2018-09-18T01:28:41.987Z,17.70
2018-09-18T01:31:11.392Z,17.70
2018-09-18T01:33:40.795Z,17.60
2018-09-18T01:36:10.409Z,17.40
2018-09-18T01:38:42.463Z,17.70
2018-09-18T01:41:11.968Z,17.60
2018-09-18T01:43:41.934Z,17.50
2018-09-18T01:46:11.864Z,17.60
2018-09-18T01:48:41.817Z,17.60
2018-09-18T01:51:11.220Z,17.60
2018-09-18T01:53:40.856Z,17.60
2018-09-18T01:56:11.766Z,17.60
2018-09-18T01:58:41.064Z,17.50
2018-09-18T02:01:10.266Z,17.50
2018-09-18T02:03:39.561Z,17.60
2018-09-18T02:06:08.753Z,17.40
2018-09-18T02:08:38.261Z,17.30
2018-09-18T02:11:07.765Z,17.30
2018-09-18T02:13:37.717Z,17.40
2018-09-18T02:16:07.490Z,17.40
2018-09-18T02:18:37.024Z,17.40
2018-09-18T02:21:06.293Z,17.40
2018-09-18T02:23:35.120Z,17.30
2018-09-18T02:26:04.254Z,17.40
2018-09-18T02:28:33.286Z,17.40
2018-09-18T02:31:02.146Z,17.40
2018-09-18T02:33:31.216Z,17.40
2018-09-18T02:36:01.870Z,17.30
2018-09-18T02:38:31.387Z,17.40
2018-09-18T02:41:00.472Z,17.30
2018-09-18T02:43:29.576Z,17.10
2018-09-18T02:45:59.892Z,17.10
2018-09-18T02:48:29.420Z,17.00
2018-09-18T02:50:58.733Z,17.10
2018-09-18T02:53:28.411Z,17.10
2018-09-18T02:55:58.222Z,17.20
2018-09-18T02:58:27.421Z,17.10
2018-09-18T03:01:07.473Z,17.00
2018-09-18T03:03:37.691Z,17.10
2018-09-18T03:06:07.196Z,17.00
2018-09-18T03:08:37.725Z,16.90
2018-09-18T03:11:07.500Z,16.80
2018-09-18T03:13:36.748Z,17.00
2018-09-18T03:16:06.234Z,17.00
2018-09-18T03:18:35.534Z,16.90
2018-09-18T03:21:05.061Z,16.90
2018-09-18T03:23:34.768Z,16.80
2018-09-18T03:26:04.605Z,16.80
2018-09-18T03:28:34.416Z,16.80
2018-09-18T03:31:03.738Z,16.80
2018-09-18T03:33:33.914Z,16.80
2018-09-18T03:36:03.831Z,16.80
2018-09-18T03:38:33.361Z,16.80
2018-09-18T03:41:03.444Z,16.70
2018-09-18T03:43:34.363Z,16.80
2018-09-18T03:46:04.123Z,16.70
2018-09-18T03:48:33.207Z,16.80
2018-09-18T03:51:03.337Z,16.70
2018-09-18T03:53:32.686Z,16.70
2018-09-18T03:56:02.394Z,16.70
2018-09-18T03:58:31.852Z,16.70
2018-09-18T04:01:01.107Z,16.70
2018-09-18T04:03:30.753Z,16.80
2018-09-18T04:06:00.243Z,16.70
2018-09-18T04:08:30.686Z,16.50
2018-09-18T04:11:00.445Z,16.50
2018-09-18T04:13:29.864Z,16.60
2018-09-18T04:15:59.669Z,16.60
2018-09-18T04:18:29.322Z,16.50
2018-09-18T04:20:59.441Z,16.50
2018-09-18T04:23:28.638Z,16.60
2018-09-18T04:25:59.989Z,16.60
2018-09-18T04:28:29.388Z,16.60
2018-09-18T04:31:01.414Z,16.60
2018-09-18T04:33:31.469Z,16.60
2018-09-18T04:36:00.462Z,16.60
2018-09-18T04:38:29.978Z,16.70
2018-09-18T04:40:59.804Z,16.70
2018-09-18T04:43:30.613Z,16.60
2018-09-18T04:46:00.261Z,16.60
2018-09-18T04:48:31.294Z,16.50
2018-09-18T04:51:00.690Z,16.50
2018-09-18T04:53:30.255Z,16.40
2018-09-18T04:56:00.083Z,16.50
2018-09-18T04:58:29.508Z,16.50
2018-09-18T05:00:59.094Z,16.50
2018-09-18T05:03:28.599Z,16.50
2018-09-18T05:05:57.387Z,16.50
2018-09-18T05:08:27.075Z,16.40
2018-09-18T05:10:56.430Z,16.40
2018-09-18T05:13:25.493Z,16.50
2018-09-18T05:15:55.201Z,16.40
2018-09-18T05:18:24.937Z,16.50
2018-09-18T05:20:53.611Z,16.50
2018-09-18T05:23:22.592Z,16.60
2018-09-18T05:25:51.583Z,16.70
2018-09-18T05:28:20.316Z,16.70
2018-09-18T05:30:48.974Z,16.70
2018-09-18T05:33:17.733Z,16.80
2018-09-18T05:35:46.392Z,16.80
2018-09-18T05:38:15.373Z,16.90
2018-09-18T05:40:44.313Z,17.00
2018-09-18T05:43:13.253Z,17.10
2018-09-18T05:45:41.882Z,17.20
2018-09-18T05:48:12.657Z,17.30
2018-09-18T05:50:42.272Z,17.30
2018-09-18T05:53:11.727Z,17.40
2018-09-18T05:55:40.379Z,17.50
2018-09-18T05:58:09.043Z,17.60
2018-09-18T06:00:37.680Z,17.60
2018-09-18T06:03:06.333Z,17.70
2018-09-18T06:05:34.913Z,17.60
2018-09-18T06:08:03.553Z,17.70
2018-09-18T06:10:32.154Z,17.70
2018-09-18T06:13:00.796Z,17.80
2018-09-18T06:15:29.402Z,18.00
2018-09-18T06:17:58.022Z,18.00
2018-09-18T06:20:26.779Z,18.10
2018-09-18T06:22:55.359Z,18.20
2018-09-18T06:25:24.213Z,18.40
2018-09-18T06:27:52.872Z,18.50
2018-09-18T06:30:21.569Z,18.50
2018-09-18T06:32:50.320Z,18.50
2018-09-18T06:35:18.968Z,18.60
2018-09-18T06:37:47.568Z,18.50
2018-09-18T06:40:16.221Z,18.70
2018-09-18T06:42:44.892Z,18.80
2018-09-18T06:45:14.053Z,19.00
2018-09-18T06:47:42.981Z,19.00
2018-09-18T06:50:11.681Z,19.10
2018-09-18T06:52:40.312Z,19.30
2018-09-18T06:55:09.013Z,19.40
2018-09-18T06:57:37.492Z,19.40
2018-09-18T07:00:06.473Z,19.50
2018-09-18T07:02:34.926Z,19.50
2018-09-18T07:05:03.374Z,19.60
2018-09-18T07:07:31.740Z,19.70
2018-09-18T07:10:00.202Z,19.90
2018-09-18T07:12:28.732Z,20.00
2018-09-18T07:14:57.239Z,20.00
2018-09-18T07:17:25.629Z,20.10
2018-09-18T07:19:54.094Z,20.10
2018-09-18T07:22:22.520Z,20.30
2018-09-18T07:24:50.990Z,20.40
2018-09-18T07:27:19.466Z,20.40
2018-09-18T07:29:48.495Z,20.50
2018-09-18T07:32:16.910Z,20.50
2018-09-18T07:34:45.306Z,20.70
2018-09-18T07:37:13.778Z,20.80
2018-09-18T07:39:42.332Z,21.00
2018-09-18T07:42:10.814Z,21.00
2018-09-18T07:44:40.576Z,21.00
2018-09-18T07:47:09.091Z,21.00
2018-09-18T07:49:37.506Z,21.20
2018-09-18T07:52:06.003Z,21.40
2018-09-18T07:54:34.410Z,21.40
2018-09-18T07:57:02.870Z,21.60
2018-09-18T07:59:31.334Z,21.50
2018-09-18T08:01:59.845Z,21.50
2018-09-18T08:04:28.226Z,21.50
2018-09-18T08:06:56.718Z,21.70
2018-09-18T08:09:25.183Z,21.80
2018-09-18T08:11:53.634Z,22.00
2018-09-18T08:14:22.059Z,22.20
2018-09-18T08:16:50.493Z,22.20
2018-09-18T08:19:18.933Z,22.20
2018-09-18T08:21:47.379Z,22.40
2018-09-18T08:24:15.905Z,22.50
2018-09-18T08:26:44.426Z,22.60
2018-09-18T08:29:12.855Z,22.80
2018-09-18T08:31:41.581Z,22.90
2018-09-18T08:34:09.942Z,22.90
2018-09-18T08:36:38.343Z,22.80
2018-09-18T08:39:08.484Z,23.00
2018-09-18T08:41:37.070Z,23.20
2018-09-18T08:44:05.467Z,23.30
2018-09-18T08:46:33.839Z,23.30
2018-09-18T08:49:02.241Z,23.20
2018-09-18T08:51:30.642Z,23.40
2018-09-18T08:53:59.058Z,23.60
2018-09-18T08:56:27.456Z,23.70
2018-09-18T08:58:55.815Z,23.80
2018-09-18T09:01:24.219Z,23.80
2018-09-18T09:03:52.579Z,24.10
2018-09-18T09:06:21.121Z,24.10
2018-09-18T09:08:49.571Z,24.40
2018-09-18T09:11:17.854Z,24.40
2018-09-18T09:13:46.232Z,24.70
2018-09-18T09:16:14.622Z,24.60
2018-09-18T09:18:43.072Z,24.70
2018-09-18T09:21:11.540Z,24.80
2018-09-18T09:23:39.856Z,25.20
2018-09-18T09:26:08.373Z,25.20
2018-09-18T09:28:36.769Z,25.20
2018-09-18T09:31:05.232Z,25.10
2018-09-18T09:33:33.627Z,25.40
2018-09-18T09:36:02.003Z,25.30
2018-09-18T09:38:30.427Z,25.40
2018-09-18T09:40:58.806Z,25.50
2018-09-18T09:43:27.191Z,25.90
2018-09-18T09:45:55.663Z,25.90
2018-09-18T09:48:24.072Z,25.90
2018-09-18T09:50:52.495Z,25.90
2018-09-18T09:53:21.005Z,26.00
2018-09-18T09:55:49.412Z,26.00
2018-09-18T09:58:17.804Z,26.20
2018-09-18T10:00:51.535Z,26.40
2018-09-18T10:03:19.964Z,26.40
2018-09-18T10:05:48.429Z,26.50
2018-09-18T10:08:16.845Z,26.60
2018-09-18T10:10:45.413Z,26.70
2018-09-18T10:13:13.655Z,26.50
2018-09-18T10:15:42.131Z,26.70
2018-09-18T10:18:10.511Z,26.70
2018-09-18T10:20:38.867Z,26.90
2018-09-18T10:23:07.266Z,26.80
2018-09-18T10:25:35.617Z,26.70
2018-09-18T10:28:04.078Z,27.00
2018-09-18T10:30:32.450Z,26.90
2018-09-18T10:33:00.852Z,27.20
2018-09-18T10:35:29.209Z,27.30
2018-09-18T10:37:57.617Z,27.30
2018-09-18T10:40:26.008Z,27.40
2018-09-18T10:42:54.391Z,27.50
2018-09-18T10:45:22.792Z,27.70
2018-09-18T10:47:51.180Z,27.80
2018-09-18T10:50:19.595Z,28.10
2018-09-18T10:52:47.985Z,28.10
2018-09-18T10:55:16.443Z,27.90
2018-09-18T10:57:44.785Z,28.10
2018-09-18T11:00:13.221Z,28.30
2018-09-18T11:02:41.616Z,28.10
2018-09-18T11:05:09.984Z,28.40
2018-09-18T11:07:38.506Z,28.50
2018-09-18T11:10:07.140Z,28.50
2018-09-18T11:12:35.607Z,28.80
2018-09-18T11:15:04.176Z,29.00
2018-09-18T11:17:32.502Z,29.10
2018-09-18T11:20:00.939Z,29.20
2018-09-18T11:22:29.318Z,29.20
2018-09-18T11:24:57.704Z,29.40
2018-09-18T11:27:25.977Z,29.50
2018-09-18T11:29:54.378Z,29.60
2018-09-18T11:32:22.822Z,29.50
2018-09-18T11:34:51.218Z,29.70
2018-09-18T11:37:19.577Z,30.00
2018-09-18T11:39:47.954Z,30.10
2018-09-18T11:42:16.382Z,30.30
2018-09-18T11:44:44.743Z,30.40
2018-09-18T11:47:13.106Z,30.70
2018-09-18T11:49:41.475Z,31.00
2018-09-18T11:52:10.008Z,31.00
2018-09-18T11:54:38.439Z,30.70
2018-09-18T11:57:06.810Z,30.60
2018-09-18T11:59:35.170Z,30.60
2018-09-18T12:02:03.587Z,31.00
2018-09-18T12:04:32.078Z,31.30
2018-09-18T12:07:00.456Z,31.60
2018-09-18T12:09:28.870Z,31.50
2018-09-18T12:11:57.207Z,31.40
2018-09-18T12:14:25.774Z,31.20
2018-09-18T12:16:54.197Z,31.10
2018-09-18T12:19:22.550Z,31.40
2018-09-18T12:21:50.899Z,31.30
2018-09-18T12:24:19.767Z,31.60
2018-09-18T12:26:48.622Z,31.40
2018-09-18T12:29:17.727Z,29.50
2018-09-18T12:31:46.772Z,31.50
2018-09-18T12:34:15.918Z,31.30
2018-09-18T12:36:44.427Z,31.80
2018-09-18T12:39:12.770Z,32.20
2018-09-18T12:41:41.620Z,32.60
2018-09-18T12:44:09.955Z,33.20
2018-09-18T12:46:38.372Z,33.40
2018-09-18T12:49:06.856Z,32.90
2018-09-18T12:51:35.135Z,32.80
2018-09-18T12:54:03.640Z,32.80
2018-09-18T12:56:31.980Z,32.80
2018-09-18T12:59:00.390Z,33.20
2018-09-18T13:01:28.733Z,33.80
2018-09-18T13:03:57.125Z,34.50
2018-09-18T13:06:25.620Z,34.80
2018-09-18T13:08:53.898Z,34.60
2018-09-18T13:11:22.253Z,34.10
2018-09-18T13:13:50.691Z,34.10
2018-09-18T13:16:19.095Z,33.40
2018-09-18T13:18:47.438Z,34.00
2018-09-18T13:21:15.846Z,33.90
2018-09-18T13:23:44.190Z,34.10
2018-09-18T13:26:12.559Z,34.20
2018-09-18T13:28:40.973Z,35.10
2018-09-18T13:31:09.561Z,35.80
2018-09-18T13:33:37.988Z,36.00
2018-09-18T13:36:06.537Z,36.00
2018-09-18T13:38:34.917Z,35.40
2018-09-18T13:41:03.583Z,35.00
2018-09-18T13:43:31.835Z,34.80
2018-09-18T13:46:00.207Z,34.80
2018-09-18T13:48:28.571Z,35.00
2018-09-18T13:50:57.067Z,34.60
2018-09-18T13:53:25.502Z,33.90
2018-09-18T13:55:53.958Z,33.00
2018-09-18T13:58:22.370Z,34.10
2018-09-18T14:00:50.739Z,34.40
2018-09-18T14:03:19.090Z,35.20
2018-09-18T14:05:47.507Z,34.60
2018-09-18T14:08:15.909Z,33.50
2018-09-18T14:10:44.294Z,32.70
2018-09-18T14:13:12.759Z,32.10
2018-09-18T14:15:41.158Z,32.10
2018-09-18T14:18:09.502Z,32.70
2018-09-18T14:20:37.881Z,33.50
2018-09-18T14:23:06.458Z,34.00
2018-09-18T14:25:34.907Z,34.80
2018-09-18T14:28:03.232Z,34.90
2018-09-18T14:30:31.646Z,34.10
2018-09-18T14:32:59.992Z,34.50
2018-09-18T14:35:28.392Z,34.40
2018-09-18T14:37:56.792Z,35.20
2018-09-18T14:40:25.236Z,36.20
2018-09-18T14:42:54.252Z,34.20
2018-09-18T14:45:22.653Z,33.70
2018-09-18T14:47:51.190Z,33.50
2018-09-18T14:50:19.514Z,32.40
2018-09-18T14:52:47.855Z,32.20
2018-09-18T14:55:16.214Z,32.60
2018-09-18T14:57:44.572Z,32.40
2018-09-18T15:00:12.995Z,32.00
2018-09-18T15:02:41.319Z,32.20
2018-09-18T15:05:09.670Z,32.10
2018-09-18T15:07:38.031Z,32.00
2018-09-18T15:10:06.618Z,31.90
2018-09-18T15:12:35.007Z,32.00
2018-09-18T15:15:03.425Z,31.80
2018-09-18T15:17:31.787Z,31.80
2018-09-18T15:20:00.235Z,32.20
2018-09-18T15:22:28.599Z,32.20
2018-09-18T15:24:57.198Z,32.40
2018-09-18T15:27:25.572Z,32.50
2018-09-18T15:29:53.938Z,32.50
2018-09-18T15:32:22.336Z,32.30
2018-09-18T15:34:50.750Z,32.20
2018-09-18T15:37:19.204Z,32.20
2018-09-18T15:39:47.591Z,33.90
2018-09-18T15:42:15.966Z,33.80
2018-09-18T15:44:44.338Z,33.00
2018-09-18T15:47:12.705Z,35.10
2018-09-18T15:49:41.046Z,35.20
2018-09-18T15:52:09.526Z,34.90
2018-09-18T15:54:37.872Z,35.40
2018-09-18T15:57:06.882Z,35.40
2018-09-18T15:59:35.250Z,35.80
2018-09-18T16:02:03.638Z,35.90
2018-09-18T16:04:31.998Z,36.20
2018-09-18T16:07:00.390Z,35.00
2018-09-18T16:09:28.753Z,34.10
2018-09-18T16:11:57.171Z,35.00
2018-09-18T16:14:25.540Z,35.40
2018-09-18T16:16:53.971Z,36.20
2018-09-18T16:19:22.293Z,36.50
2018-09-18T16:21:50.666Z,36.00
2018-09-18T16:24:19.007Z,36.70
2018-09-18T16:26:47.448Z,36.30
2018-09-18T16:29:15.859Z,35.90
2018-09-18T16:31:44.234Z,35.20
2018-09-18T16:34:12.563Z,34.90
2018-09-18T16:36:41.019Z,34.30
2018-09-18T16:39:09.306Z,32.90
2018-09-18T16:41:37.688Z,31.70
2018-09-18T16:44:06.111Z,30.80
2018-09-18T16:46:34.491Z,30.30
2018-09-18T16:49:03.852Z,30.00
2018-09-18T16:51:32.573Z,29.80
2018-09-18T16:54:01.361Z,29.60
2018-09-18T16:56:29.727Z,29.40
2018-09-18T16:58:58.160Z,31.70
2018-09-18T17:01:26.518Z,29.20
2018-09-18T17:03:54.991Z,29.10
2018-09-18T17:06:23.375Z,29.00
2018-09-18T17:08:51.789Z,28.90
2018-09-18T17:11:20.183Z,28.90
2018-09-18T17:13:48.535Z,28.70
2018-09-18T17:16:16.873Z,28.70
2018-09-18T17:18:45.221Z,28.60
2018-09-18T17:21:13.558Z,28.50
2018-09-18T17:23:41.926Z,28.40
2018-09-18T17:26:10.266Z,28.30
2018-09-18T17:28:38.793Z,28.20
2018-09-18T17:31:07.528Z,28.10
2018-09-18T17:33:36.386Z,28.10
2018-09-18T17:36:04.721Z,28.00
2018-09-18T17:38:33.092Z,27.90
2018-09-18T17:41:01.623Z,27.80
2018-09-18T17:43:29.990Z,27.70
2018-09-18T17:45:58.335Z,27.60
2018-09-18T17:48:26.734Z,27.60
2018-09-18T17:50:55.079Z,27.50
2018-09-18T17:53:23.446Z,27.50
2018-09-18T17:55:51.815Z,27.40
2018-09-18T17:58:20.186Z,27.30
2018-09-18T18:00:48.653Z,27.20
2018-09-18T18:03:17.391Z,27.10
2018-09-18T18:05:45.796Z,27.00
2018-09-18T18:08:14.218Z,27.00
2018-09-18T18:10:42.599Z,26.90
2018-09-18T18:13:11.088Z,26.80
2018-09-18T18:15:39.465Z,26.70
2018-09-18T18:18:07.838Z,26.70
2018-09-18T18:20:36.641Z,26.60
2018-09-18T18:23:05.147Z,26.60
2018-09-18T18:25:34.076Z,26.60
2018-09-18T18:28:02.405Z,26.60
2018-09-18T18:30:30.855Z,26.60
2018-09-18T18:32:59.281Z,26.50
2018-09-18T18:35:27.692Z,26.50
2018-09-18T18:37:56.486Z,26.40
2018-09-18T18:40:24.867Z,26.40
2018-09-18T18:42:54.068Z,26.40
2018-09-18T18:45:22.579Z,26.40
2018-09-18T18:47:51.008Z,26.40
2018-09-18T18:50:19.392Z,26.30
2018-09-18T18:52:47.810Z,26.20
2018-09-18T18:55:16.186Z,26.10
2018-09-18T18:57:45.131Z,26.10
2018-09-18T19:00:13.485Z,26.00
2018-09-18T19:02:42.071Z,25.90
2018-09-18T19:05:11.375Z,25.90
2018-09-18T19:07:39.875Z,25.80
2018-09-18T19:10:08.261Z,25.80
2018-09-18T19:12:36.619Z,25.70
2018-09-18T19:15:04.998Z,25.60
2018-09-18T19:17:33.383Z,25.50
2018-09-18T19:20:01.933Z,25.50
2018-09-18T19:22:30.316Z,25.40
2018-09-18T19:24:58.766Z,25.40
2018-09-18T19:27:27.161Z,25.40
2018-09-18T19:29:55.617Z,25.30
2018-09-18T19:32:24.006Z,25.20
2018-09-18T19:34:52.496Z,25.20
2018-09-18T19:37:20.874Z,25.10
2018-09-18T19:39:49.243Z,25.00
2018-09-18T19:42:17.875Z,25.00
2018-09-18T19:44:46.373Z,25.00
2018-09-18T19:47:14.715Z,24.90
2018-09-18T19:49:43.129Z,24.90
2018-09-18T19:52:12.043Z,24.80
2018-09-18T19:54:41.103Z,24.80
2018-09-18T19:57:09.776Z,24.80
2018-09-18T19:59:38.306Z,24.70
2018-09-18T20:02:06.896Z,24.70
2018-09-18T20:04:35.386Z,24.60
2018-09-18T20:07:03.786Z,24.50
2018-09-18T20:09:32.146Z,24.50
2018-09-18T20:12:00.574Z,24.50
2018-09-18T20:14:28.930Z,24.40
2018-09-18T20:16:57.500Z,24.40
2018-09-18T20:19:26.081Z,24.30
2018-09-18T20:21:54.711Z,24.30
2018-09-18T20:24:23.282Z,24.30
2018-09-18T20:26:51.630Z,24.20
2018-09-18T20:29:20.003Z,24.10
2018-09-18T20:31:48.490Z,24.10
2018-09-18T20:34:18.505Z,24.10
2018-09-18T20:36:47.366Z,24.20
2018-09-18T20:39:24.588Z,24.10
2018-09-18T20:41:54.241Z,24.10
2018-09-18T20:44:23.101Z,24.10
2018-09-18T20:46:52.585Z,24.00
2018-09-18T20:49:22.368Z,24.00
2018-09-18T20:51:52.210Z,23.90
2018-09-18T20:54:21.395Z,23.80
2018-09-18T20:56:50.813Z,23.60
2018-09-18T20:59:20.012Z,23.60
2018-09-18T21:01:48.914Z,23.60
2018-09-18T21:04:18.079Z,23.50
2018-09-18T21:06:48.322Z,23.50
2018-09-18T21:09:17.242Z,23.50
2018-09-18T21:11:47.336Z,23.50
2018-09-18T21:14:16.489Z,23.50
2018-09-18T21:16:45.849Z,23.40
2018-09-18T21:19:18.101Z,23.40
2018-09-18T21:21:47.627Z,23.40
2018-09-18T21:24:16.391Z,23.40
2018-09-18T21:26:48.453Z,23.40
2018-09-18T21:29:17.463Z,23.40
2018-09-18T21:31:46.476Z,23.40
2018-09-18T21:34:15.505Z,23.30
2018-09-18T21:36:46.234Z,23.40
2018-09-18T21:39:16.014Z,23.30
2018-09-18T21:41:44.938Z,23.20
2018-09-18T21:44:14.136Z,23.20
2018-09-18T21:46:43.192Z,23.20
2018-09-18T21:49:13.204Z,23.10
2018-09-18T21:51:42.075Z,23.00
2018-09-18T21:54:11.043Z,23.00
2018-09-18T21:56:40.269Z,23.00
2018-09-18T21:59:11.762Z,22.90
2018-09-18T22:01:41.046Z,22.80
2018-09-18T22:04:10.896Z,22.70
2018-09-18T22:06:40.167Z,22.70
2018-09-18T22:09:09.451Z,22.70
2018-09-18T22:11:38.862Z,22.80
2018-09-18T22:14:08.371Z,22.70
2018-09-18T22:16:38.269Z,22.70
2018-09-18T22:19:12.543Z,22.70
2018-09-18T22:21:41.829Z,22.70
2018-09-18T22:24:11.234Z,22.60
2018-09-18T22:26:40.708Z,22.60
2018-09-18T22:29:10.306Z,22.50
2018-09-18T22:31:40.694Z,22.50
2018-09-18T22:34:10.043Z,22.40
2018-09-18T22:36:39.988Z,22.40
2018-09-18T22:39:09.902Z,22.40
2018-09-18T22:41:39.532Z,22.40
2018-09-18T22:44:08.682Z,22.30
2018-09-18T22:46:37.945Z,22.30
2018-09-18T22:49:07.114Z,22.30
2018-09-18T22:51:36.384Z,22.20
2018-09-18T22:54:07.119Z,22.20
2018-09-18T22:56:37.073Z,22.10
2018-09-18T22:59:06.139Z,22.10
2018-09-18T23:01:35.905Z,22.00
2018-09-18T23:04:04.794Z,22.00
2018-09-18T23:06:34.001Z,21.90
2018-09-18T23:09:02.956Z,21.80
2018-09-18T23:11:31.965Z,21.70
2018-09-18T23:14:01.253Z,20.80
2018-09-18T23:16:30.176Z,21.60
2018-09-18T23:19:02.687Z,21.60
2018-09-18T23:21:34.447Z,21.60
2018-09-18T23:24:03.441Z,21.60
2018-09-18T23:26:32.330Z,21.50
2018-09-18T23:29:01.324Z,21.50
2018-09-18T23:31:30.650Z,21.50
2018-09-18T23:33:59.851Z,21.60
2018-09-18T23:36:28.881Z,21.50
2018-09-18T23:38:58.016Z,21.40
2018-09-18T23:41:27.115Z,21.30
2018-09-18T23:43:56.370Z,21.30
2018-09-18T23:46:28.437Z,21.30
2018-09-18T23:48:57.430Z,21.30
2018-09-18T23:51:26.672Z,21.20
2018-09-18T23:53:56.131Z,21.20
2018-09-18T23:56:27.580Z,21.20
2018-09-18T23:58:56.518Z,21.20
